createdAt,value
2016-12-01T00:00:29.277Z,0
2016-12-01T00:01:28.978Z,0
2016-12-01T00:02:28.994Z,0
2016-12-01T00:03:29.334Z,0
2016-12-01T00:04:29.344Z,0
2016-12-01T00:05:29.041Z,0
2016-12-01T00:06:28.744Z,0
2016-12-01T00:07:29.392Z,0
2016-12-01T00:08:29.733Z,0
2016-12-01T00:09:29.104Z,0
2016-12-01T00:10:29.124Z,0
2016-12-01T00:11:28.826Z,0
2016-12-01T00:12:29.156Z,0
2016-12-01T00:13:29.490Z,0
2016-12-01T00:14:28.871Z,0
2016-12-01T00:15:28.892Z,0
2016-12-01T00:16:29.537Z,0
2016-12-01T00:17:29.240Z,0
2016-12-01T00:18:29.570Z,0
2016-12-01T00:19:29.299Z,0
2016-12-01T00:20:29.281Z,0
2016-12-01T00:21:29.619Z,0
2016-12-01T00:22:29.635Z,0
2016-12-01T00:23:29.650Z,0
2016-12-01T00:24:29.662Z,0
2016-12-01T00:25:29.680Z,0
2016-12-01T00:26:29.381Z,0
2016-12-01T00:27:29.710Z,0
2016-12-01T00:28:29.729Z,0
2016-12-01T00:29:29.426Z,0
2016-12-01T00:30:29.758Z,0
2016-12-01T00:31:29.774Z,0
2016-12-01T00:32:29.798Z,0
2016-12-01T00:33:29.523Z,0
2016-12-01T00:34:30.141Z,0
2016-12-01T00:35:29.840Z,0
2016-12-01T00:36:29.889Z,0
2016-12-01T00:37:29.587Z,0
2016-12-01T00:38:29.263Z,0
2016-12-01T00:39:30.221Z,0
2016-12-01T00:40:29.625Z,0
2016-12-01T00:41:29.306Z,0
2016-12-01T00:42:29.636Z,0
2016-12-01T00:43:29.662Z,0
2016-12-01T00:44:29.690Z,0
2016-12-01T00:45:30.000Z,0
2016-12-01T00:46:29.703Z,0
2016-12-01T00:47:29.718Z,0
2016-12-01T00:48:30.053Z,0
2016-12-01T00:49:30.388Z,0
2016-12-01T00:50:30.092Z,0
2016-12-01T00:51:30.415Z,0
2016-12-01T00:52:29.800Z,0
2016-12-01T00:53:29.815Z,0
2016-12-01T00:54:29.519Z,0
2016-12-01T00:55:29.846Z,0
2016-12-01T00:56:29.869Z,0
2016-12-01T00:57:30.199Z,0
2016-12-01T00:58:30.238Z,0
2016-12-01T00:59:30.257Z,0
2016-12-01T01:00:30.247Z,0
2016-12-01T01:01:29.945Z,0
2016-12-01T01:02:29.639Z,0
2016-12-01T01:03:29.997Z,0
2016-12-01T01:04:29.990Z,0
2016-12-01T01:05:30.363Z,0
2016-12-01T01:06:29.725Z,0
2016-12-01T01:07:30.352Z,0
2016-12-01T01:08:30.054Z,0
2016-12-01T01:09:30.387Z,0
2016-12-01T01:10:30.089Z,0
2016-12-01T01:11:29.788Z,0
2016-12-01T01:12:30.118Z,0
2016-12-01T01:13:30.766Z,0
2016-12-01T01:14:30.462Z,0
2016-12-01T01:15:30.167Z,0
2016-12-01T01:16:29.868Z,0
2016-12-01T01:17:30.204Z,0
2016-12-01T01:18:30.531Z,0
2016-12-01T01:19:30.234Z,0
2016-12-01T01:20:30.564Z,0
2016-12-01T01:21:30.575Z,0
2016-12-01T01:22:30.602Z,0
2016-12-01T01:23:30.292Z,0
2016-12-01T01:24:30.641Z,0
2016-12-01T01:25:30.347Z,0
2016-12-01T01:26:30.339Z,0
2016-12-01T01:27:30.381Z,0
2016-12-01T01:28:30.706Z,0
2016-12-01T01:29:30.753Z,0
2016-12-01T01:30:30.412Z,0
2016-12-01T01:31:30.449Z,0
2016-12-01T01:32:30.756Z,0
2016-12-01T01:33:30.453Z,0
2016-12-01T01:34:30.782Z,0
2016-12-01T01:35:30.486Z,0
2016-12-01T01:36:30.818Z,0
2016-12-01T01:37:30.556Z,0
2016-12-01T01:38:30.850Z,0
2016-12-01T01:39:30.235Z,0
2016-12-01T01:40:30.563Z,0
2016-12-01T01:41:30.267Z,0
2016-12-01T01:42:30.599Z,0
2016-12-01T01:43:31.245Z,0
2016-12-01T01:44:30.632Z,0
2016-12-01T01:45:30.961Z,0
2016-12-01T01:46:30.662Z,0
2016-12-01T01:47:30.359Z,0
2016-12-01T01:48:31.009Z,0
2016-12-01T01:49:30.730Z,0
2016-12-01T01:50:30.742Z,0
2016-12-01T01:51:31.058Z,0
2016-12-01T01:52:31.068Z,0
2016-12-01T01:53:30.766Z,0
2016-12-01T01:54:30.796Z,0
2016-12-01T01:55:31.436Z,0
2016-12-01T01:56:31.451Z,0
2016-12-01T01:57:30.871Z,0
2016-12-01T01:58:31.168Z,0
2016-12-01T01:59:30.872Z,0
2016-12-01T02:00:31.204Z,0
2016-12-01T02:01:30.905Z,0
2016-12-01T02:02:30.915Z,0
2016-12-01T02:03:31.246Z,0
2016-12-01T02:04:30.947Z,0
2016-12-01T02:05:31.274Z,0
2016-12-01T02:06:31.289Z,0
2016-12-01T02:07:30.993Z,0
2016-12-01T02:08:30.697Z,0
2016-12-01T02:09:31.230Z,0
2016-12-01T02:10:31.041Z,0
2016-12-01T02:11:31.370Z,0
2016-12-01T02:12:30.778Z,0
2016-12-01T02:13:31.086Z,0
2016-12-01T02:14:31.421Z,0
2016-12-01T02:15:31.756Z,0
2016-12-01T02:16:31.766Z,0
2016-12-01T02:17:30.837Z,0
2016-12-01T02:18:31.794Z,0
2016-12-01T02:19:31.184Z,0
2016-12-01T02:20:31.194Z,0
2016-12-01T02:21:31.548Z,0
2016-12-01T02:22:31.225Z,0
2016-12-01T02:23:31.559Z,0
2016-12-01T02:24:31.256Z,0
2016-12-01T02:25:31.616Z,0
2016-12-01T02:26:31.610Z,0
2016-12-01T02:27:31.304Z,0
2016-12-01T02:28:31.951Z,0
2016-12-01T02:29:31.654Z,0
2016-12-01T02:30:31.034Z,0
2016-12-01T02:31:31.368Z,0
2016-12-01T02:32:31.383Z,0
2016-12-01T02:33:31.085Z,0
2016-12-01T02:34:31.413Z,0
2016-12-01T02:35:31.744Z,0
2016-12-01T02:36:31.445Z,0
2016-12-01T02:37:31.778Z,0
2016-12-01T02:38:31.480Z,0
2016-12-01T02:39:31.491Z,0
2016-12-01T02:40:31.960Z,0
2016-12-01T02:41:31.523Z,0
2016-12-01T02:42:32.168Z,0
2016-12-01T02:43:32.188Z,0
2016-12-01T02:44:32.203Z,0
2016-12-01T02:45:31.900Z,0
2016-12-01T02:46:31.602Z,0
2016-12-01T02:47:31.624Z,0
2016-12-01T02:48:32.261Z,0
2016-12-01T02:49:32.282Z,0
2016-12-01T02:50:31.979Z,0
2016-12-01T02:51:31.995Z,0
2016-12-01T02:52:31.378Z,0
2016-12-01T02:53:31.705Z,0
2016-12-01T02:54:31.721Z,0
2016-12-01T02:55:32.068Z,0
2016-12-01T02:56:32.075Z,0
2016-12-01T02:57:31.453Z,0
2016-12-01T02:58:32.424Z,0
2016-12-01T02:59:31.480Z,0
2016-12-01T03:00:32.131Z,0
2016-12-01T03:01:31.827Z,0
2016-12-01T03:02:31.845Z,0
2016-12-01T03:03:31.546Z,0
2016-12-01T03:04:31.876Z,0
2016-12-01T03:05:31.910Z,0
2016-12-01T03:06:32.238Z,0
2016-12-01T03:07:32.238Z,0
2016-12-01T03:08:31.624Z,0
2016-12-01T03:09:32.291Z,0
2016-12-01T03:10:32.287Z,0
2016-12-01T03:11:31.984Z,0
2016-12-01T03:12:32.313Z,0
2016-12-01T03:13:32.329Z,0
2016-12-01T03:14:32.033Z,0
2016-12-01T03:15:31.737Z,0
2016-12-01T03:16:31.742Z,0
2016-12-01T03:17:32.407Z,0
2016-12-01T03:18:31.775Z,0
2016-12-01T03:19:32.437Z,0
2016-12-01T03:20:32.123Z,0
2016-12-01T03:21:32.135Z,0
2016-12-01T03:22:32.464Z,0
2016-12-01T03:23:32.481Z,0
2016-12-01T03:24:32.532Z,0
2016-12-01T03:25:32.514Z,0
2016-12-01T03:26:32.527Z,0
2016-12-01T03:27:32.227Z,0
2016-12-01T03:28:31.931Z,0
2016-12-01T03:29:32.262Z,0
2016-12-01T03:30:32.273Z,0
2016-12-01T03:31:32.292Z,0
2016-12-01T03:32:32.332Z,0
2016-12-01T03:33:32.635Z,0
2016-12-01T03:34:32.021Z,0
2016-12-01T03:35:32.378Z,0
2016-12-01T03:36:32.365Z,0
2016-12-01T03:37:32.695Z,0
2016-12-01T03:38:33.028Z,0
2016-12-01T03:39:32.413Z,0
2016-12-01T03:40:32.740Z,0
2016-12-01T03:41:32.756Z,0
2016-12-01T03:42:32.457Z,0
2016-12-01T03:43:32.809Z,0
2016-12-01T03:44:32.170Z,0
2016-12-01T03:45:32.184Z,0
2016-12-01T03:46:32.201Z,0
2016-12-01T03:47:32.531Z,0
2016-12-01T03:48:32.254Z,0
2016-12-01T03:49:32.563Z,0
2016-12-01T03:50:32.893Z,0
2016-12-01T03:51:33.230Z,0
2016-12-01T03:52:32.612Z,0
2016-12-01T03:53:32.634Z,0
2016-12-01T03:54:32.969Z,0
2016-12-01T03:55:33.283Z,0
2016-12-01T03:56:32.985Z,0
2016-12-01T03:57:33.001Z,0
2016-12-01T03:58:32.707Z,0
2016-12-01T03:59:33.346Z,0
2016-12-01T04:00:33.057Z,0
2016-12-01T04:01:32.752Z,0
2016-12-01T04:02:33.081Z,0
2016-12-01T04:03:33.090Z,0
2016-12-01T04:04:32.470Z,0
2016-12-01T04:05:33.444Z,0
2016-12-01T04:06:33.132Z,0
2016-12-01T04:07:33.155Z,0
2016-12-01T04:08:33.170Z,0
2016-12-01T04:09:33.182Z,0
2016-12-01T04:10:32.880Z,0
2016-12-01T04:11:32.893Z,0
2016-12-01T04:12:33.226Z,0
2016-12-01T04:13:32.929Z,0
2016-12-01T04:14:33.586Z,0
2016-12-01T04:15:32.647Z,0
2016-12-01T04:16:32.988Z,0
2016-12-01T04:17:32.671Z,0
2016-12-01T04:18:33.018Z,0
2016-12-01T04:19:33.332Z,0
2016-12-01T04:20:33.054Z,0
2016-12-01T04:21:33.047Z,0
2016-12-01T04:22:33.082Z,0
2016-12-01T04:23:33.093Z,0
2016-12-01T04:24:33.403Z,0
2016-12-01T04:25:33.105Z,0
2016-12-01T04:26:33.439Z,0
2016-12-01T04:27:33.141Z,0
2016-12-01T04:28:33.155Z,0
2016-12-01T04:29:33.166Z,0
2016-12-01T04:30:33.180Z,0
2016-12-01T04:31:33.515Z,0
2016-12-01T04:32:32.897Z,0
2016-12-01T04:33:33.555Z,0
2016-12-01T04:34:33.251Z,0
2016-12-01T04:35:33.577Z,0
2016-12-01T04:36:33.589Z,0
2016-12-01T04:37:33.653Z,0
2016-12-01T04:38:33.303Z,0
2016-12-01T04:39:33.633Z,0
2016-12-01T04:40:33.652Z,0
2016-12-01T04:41:33.350Z,0
2016-12-01T04:42:33.996Z,0
2016-12-01T04:43:33.383Z,0
2016-12-01T04:44:33.179Z,0
2016-12-01T04:45:33.412Z,0
2016-12-01T04:46:33.746Z,0
2016-12-01T04:47:33.755Z,0
2016-12-01T04:48:33.770Z,0
2016-12-01T04:49:33.788Z,0
2016-12-01T04:50:33.804Z,0
2016-12-01T04:51:34.157Z,0
2016-12-01T04:52:33.522Z,0
2016-12-01T04:53:33.533Z,0
2016-12-01T04:54:33.868Z,0
2016-12-01T04:55:33.884Z,0
2016-12-01T04:56:33.264Z,0
2016-12-01T04:57:33.906Z,0
2016-12-01T04:58:33.297Z,0
2016-12-01T04:59:33.945Z,0
2016-12-01T05:00:33.955Z,0
2016-12-01T05:01:33.969Z,0
2016-12-01T05:02:33.352Z,0
2016-12-01T05:03:34.342Z,0
2016-12-01T05:04:34.016Z,0
2016-12-01T05:05:33.717Z,0
2016-12-01T05:06:33.414Z,0
2016-12-01T05:07:33.749Z,0
2016-12-01T05:08:33.758Z,0
2016-12-01T05:09:33.776Z,0
2016-12-01T05:10:33.791Z,0
2016-12-01T05:11:34.337Z,0
2016-12-01T05:12:33.822Z,0
2016-12-01T05:13:33.838Z,0
2016-12-01T05:14:33.540Z,0
2016-12-01T05:15:33.867Z,0
2016-12-01T05:16:33.880Z,0
2016-12-01T05:17:33.919Z,0
2016-12-01T05:18:33.603Z,0
2016-12-01T05:19:33.929Z,0
2016-12-01T05:20:33.949Z,0
2016-12-01T05:21:34.588Z,0
2016-12-01T05:22:34.293Z,0
2016-12-01T05:23:33.675Z,0
2016-12-01T05:24:34.637Z,0
2016-12-01T05:25:34.342Z,0
2016-12-01T05:26:34.034Z,0
2016-12-01T05:27:34.050Z,0
2016-12-01T05:28:34.705Z,0
2016-12-01T05:29:34.713Z,0
2016-12-01T05:30:34.100Z,0
2016-12-01T05:31:34.110Z,0
2016-12-01T05:32:34.136Z,0
2016-12-01T05:33:34.158Z,0
2016-12-01T05:34:34.794Z,0
2016-12-01T05:35:34.504Z,0
2016-12-01T05:36:34.191Z,0
2016-12-01T05:37:34.203Z,0
2016-12-01T05:38:34.536Z,0
2016-12-01T05:39:34.548Z,0
2016-12-01T05:40:34.252Z,0
2016-12-01T05:41:34.901Z,0
2016-12-01T05:42:34.600Z,0
2016-12-01T05:43:34.621Z,0
2016-12-01T05:44:34.943Z,0
2016-12-01T05:45:34.645Z,0
2016-12-01T05:46:34.353Z,0
2016-12-01T05:47:34.677Z,0
2016-12-01T05:48:34.690Z,0
2016-12-01T05:49:34.385Z,0
2016-12-01T05:50:34.745Z,0
2016-12-01T05:51:34.428Z,0
2016-12-01T05:52:34.436Z,0
2016-12-01T05:53:34.446Z,0
2016-12-01T05:54:35.094Z,0
2016-12-01T05:55:34.792Z,0
2016-12-01T05:56:34.819Z,0
2016-12-01T05:57:34.512Z,0
2016-12-01T05:58:34.843Z,0
2016-12-01T05:59:34.542Z,0
2016-12-01T06:00:35.208Z,0
2016-12-01T06:01:34.573Z,0
2016-12-01T06:02:34.590Z,0
2016-12-01T06:03:34.915Z,0
2016-12-01T06:04:35.264Z,0
2016-12-01T06:05:34.635Z,0
2016-12-01T06:06:34.331Z,0
2016-12-01T06:07:34.666Z,0
2016-12-01T06:08:34.677Z,0
2016-12-01T06:09:35.042Z,0
2016-12-01T06:10:34.729Z,0
2016-12-01T06:11:35.044Z,0
2016-12-01T06:12:34.761Z,0
2016-12-01T06:13:34.769Z,0
2016-12-01T06:14:35.088Z,0
2016-12-01T06:15:35.103Z,0
2016-12-01T06:16:35.115Z,0
2016-12-01T06:17:34.853Z,0
2016-12-01T06:18:35.150Z,0
2016-12-01T06:19:34.847Z,0
2016-12-01T06:20:34.866Z,0
2016-12-01T06:21:35.197Z,0
2016-12-01T06:22:35.215Z,0
2016-12-01T06:23:34.597Z,0
2016-12-01T06:24:35.244Z,0
2016-12-01T06:25:34.632Z,0
2016-12-01T06:26:34.959Z,0
2016-12-01T06:27:34.657Z,0
2016-12-01T06:28:34.674Z,0
2016-12-01T06:29:34.688Z,0
2016-12-01T06:30:35.338Z,0
2016-12-01T06:31:35.371Z,0
2016-12-01T06:32:35.683Z,0
2016-12-01T06:33:35.698Z,0
2016-12-01T06:34:35.083Z,0
2016-12-01T06:35:35.119Z,0
2016-12-01T06:36:35.751Z,0
2016-12-01T06:37:35.444Z,0
2016-12-01T06:38:34.827Z,0
2016-12-01T06:39:34.844Z,0
2016-12-01T06:40:35.497Z,0
2016-12-01T06:41:35.821Z,4
2016-12-01T06:42:35.209Z,4
2016-12-01T06:43:35.230Z,4
2016-12-01T06:44:35.552Z,4
2016-12-01T06:45:35.255Z,4
2016-12-01T06:46:35.587Z,4
2016-12-01T06:47:35.286Z,4
2016-12-01T06:48:35.302Z,0
2016-12-01T06:49:35.324Z,4
2016-12-01T06:50:35.644Z,4
2016-12-01T06:51:35.031Z,4
2016-12-01T06:52:35.681Z,4
2016-12-01T06:53:36.010Z,4
2016-12-01T06:54:35.396Z,4
2016-12-01T06:55:35.726Z,4
2016-12-01T06:56:35.424Z,4
2016-12-01T06:57:35.474Z,4
2016-12-01T06:58:35.458Z,8
2016-12-01T06:59:35.158Z,4
2016-12-01T07:00:36.122Z,8
2016-12-01T07:01:35.501Z,4
2016-12-01T07:02:35.842Z,8
2016-12-01T07:03:35.854Z,8
2016-12-01T07:04:35.868Z,8
2016-12-01T07:05:35.568Z,12
2016-12-01T07:06:35.263Z,12
2016-12-01T07:07:36.228Z,12
2016-12-01T07:08:35.614Z,16
2016-12-01T07:09:35.625Z,12
2016-12-01T07:10:35.961Z,16
2016-12-01T07:11:35.660Z,16
2016-12-01T07:12:35.994Z,16
2016-12-01T07:13:36.003Z,16
2016-12-01T07:14:35.710Z,16
2016-12-01T07:15:36.352Z,16
2016-12-01T07:16:35.418Z,16
2016-12-01T07:17:36.068Z,20
2016-12-01T07:18:35.771Z,20
2016-12-01T07:19:36.118Z,20
2016-12-01T07:20:35.807Z,24
2016-12-01T07:21:35.824Z,24
2016-12-01T07:22:35.835Z,24
2016-12-01T07:23:35.536Z,28
2016-12-01T07:24:35.544Z,32
2016-12-01T07:25:36.201Z,32
2016-12-01T07:26:36.207Z,36
2016-12-01T07:27:35.911Z,36
2016-12-01T07:28:35.611Z,36
2016-12-01T07:29:35.947Z,40
2016-12-01T07:30:36.274Z,36
2016-12-01T07:31:35.972Z,40
2016-12-01T07:32:35.677Z,40
2016-12-01T07:33:36.324Z,36
2016-12-01T07:34:36.335Z,40
2016-12-01T07:35:36.356Z,40
2016-12-01T07:36:36.365Z,40
2016-12-01T07:37:36.068Z,40
2016-12-01T07:38:36.407Z,40
2016-12-01T07:39:36.420Z,40
2016-12-01T07:40:36.440Z,36
2016-12-01T07:41:36.133Z,40
2016-12-01T07:42:36.461Z,36
2016-12-01T07:43:36.482Z,36
2016-12-01T07:44:36.499Z,36
2016-12-01T07:45:36.831Z,36
2016-12-01T07:46:36.208Z,36
2016-12-01T07:47:36.552Z,36
2016-12-01T07:48:35.928Z,36
2016-12-01T07:49:36.893Z,40
2016-12-01T07:50:35.965Z,40
2016-12-01T07:51:36.291Z,44
2016-12-01T07:52:35.994Z,44
2016-12-01T07:53:36.321Z,48
2016-12-01T07:54:36.658Z,48
2016-12-01T07:55:36.673Z,52
2016-12-01T07:56:36.052Z,52
2016-12-01T07:57:36.382Z,56
2016-12-01T07:58:37.030Z,56
2016-12-01T07:59:36.737Z,56
2016-12-01T08:00:36.749Z,60
2016-12-01T08:01:36.763Z,64
2016-12-01T08:02:36.463Z,64
2016-12-01T08:03:36.161Z,68
2016-12-01T08:04:36.811Z,72
2016-12-01T08:05:36.829Z,72
2016-12-01T08:06:36.533Z,76
2016-12-01T08:07:36.548Z,76
2016-12-01T08:08:37.192Z,80
2016-12-01T08:09:36.898Z,76
2016-12-01T08:10:36.908Z,72
2016-12-01T08:11:36.924Z,76
2016-12-01T08:12:37.258Z,76
2016-12-01T08:13:36.324Z,76
2016-12-01T08:14:36.660Z,80
2016-12-01T08:15:36.373Z,84
2016-12-01T08:16:37.036Z,88
2016-12-01T08:17:36.382Z,96
2016-12-01T08:18:36.730Z,92
2016-12-01T08:19:36.420Z,92
2016-12-01T08:20:36.448Z,92
2016-12-01T08:21:36.451Z,92
2016-12-01T08:22:36.780Z,92
2016-12-01T08:23:36.835Z,92
2016-12-01T08:24:36.557Z,100
2016-12-01T08:25:37.143Z,104
2016-12-01T08:26:37.486Z,108
2016-12-01T08:27:37.178Z,112
2016-12-01T08:28:37.188Z,112
2016-12-01T08:29:36.896Z,120
2016-12-01T08:30:37.540Z,116
2016-12-01T08:31:36.929Z,120
2016-12-01T08:32:36.940Z,120
2016-12-01T08:33:36.955Z,112
2016-12-01T08:34:37.292Z,112
2016-12-01T08:35:36.671Z,112
2016-12-01T08:36:37.005Z,108
2016-12-01T08:37:37.019Z,116
2016-12-01T08:38:37.670Z,112
2016-12-01T08:39:36.733Z,108
2016-12-01T08:40:37.388Z,108
2016-12-01T08:41:36.767Z,108
2016-12-01T08:42:37.413Z,104
2016-12-01T08:43:37.432Z,104
2016-12-01T08:44:37.131Z,104
2016-12-01T08:45:37.462Z,104
2016-12-01T08:46:37.799Z,104
2016-12-01T08:47:37.490Z,104
2016-12-01T08:48:37.190Z,100
2016-12-01T08:49:37.852Z,100
2016-12-01T08:50:37.230Z,96
2016-12-01T08:51:37.554Z,96
2016-12-01T08:52:37.574Z,96
2016-12-01T08:53:37.593Z,100
2016-12-01T08:54:37.606Z,104
2016-12-01T08:55:36.991Z,108
2016-12-01T08:56:37.957Z,108
2016-12-01T08:57:37.655Z,104
2016-12-01T08:58:37.355Z,100
2016-12-01T08:59:37.372Z,100
2016-12-01T09:00:38.020Z,96
2016-12-01T09:01:37.752Z,100
2016-12-01T09:02:37.732Z,104
2016-12-01T09:03:37.759Z,104
2016-12-01T09:04:37.447Z,108
2016-12-01T09:05:37.468Z,112
2016-12-01T09:06:37.488Z,108
2016-12-01T09:07:38.134Z,108
2016-12-01T09:08:37.515Z,108
2016-12-01T09:09:37.217Z,100
2016-12-01T09:10:37.553Z,104
2016-12-01T09:11:38.193Z,108
2016-12-01T09:12:37.904Z,108
2016-12-01T09:13:37.597Z,108
2016-12-01T09:14:37.612Z,112
2016-12-01T09:15:37.953Z,124
2016-12-01T09:16:37.683Z,136
2016-12-01T09:17:37.660Z,144
2016-12-01T09:18:37.685Z,140
2016-12-01T09:19:37.702Z,140
2016-12-01T09:20:37.718Z,136
2016-12-01T09:21:37.727Z,136
2016-12-01T09:22:37.747Z,140
2016-12-01T09:23:38.078Z,136
2016-12-01T09:24:38.407Z,136
2016-12-01T09:25:38.107Z,140
2016-12-01T09:26:38.144Z,132
2016-12-01T09:27:38.156Z,124
2016-12-01T09:28:37.860Z,116
2016-12-01T09:29:38.173Z,112
2016-12-01T09:30:37.574Z,124
2016-12-01T09:31:37.902Z,132
2016-12-01T09:32:37.905Z,144
2016-12-01T09:33:37.918Z,160
2016-12-01T09:34:37.942Z,176
2016-12-01T09:35:37.953Z,168
2016-12-01T09:36:37.972Z,164
2016-12-01T09:37:38.305Z,156
2016-12-01T09:38:38.322Z,152
2016-12-01T09:39:38.026Z,156
2016-12-01T09:40:38.353Z,168
2016-12-01T09:41:37.771Z,184
2016-12-01T09:42:38.385Z,188
2016-12-01T09:43:38.408Z,188
2016-12-01T09:44:38.105Z,204
2016-12-01T09:45:38.120Z,208
2016-12-01T09:46:38.139Z,200
2016-12-01T09:47:38.153Z,204
2016-12-01T09:48:38.176Z,204
2016-12-01T09:49:38.191Z,212
2016-12-01T09:50:38.211Z,232
2016-12-01T09:51:38.873Z,220
2016-12-01T09:52:38.242Z,212
2016-12-01T09:53:38.570Z,208
2016-12-01T09:54:38.585Z,212
2016-12-01T09:55:38.306Z,212
2016-12-01T09:56:38.631Z,212
2016-12-01T09:57:38.635Z,216
2016-12-01T09:58:38.971Z,220
2016-12-01T09:59:38.456Z,224
2016-12-01T10:00:38.371Z,240
2016-12-01T10:01:38.388Z,244
2016-12-01T10:02:38.720Z,244
2016-12-01T10:03:38.738Z,244
2016-12-01T10:04:38.438Z,252
2016-12-01T10:05:38.455Z,256
2016-12-01T10:06:38.467Z,252
2016-12-01T10:07:38.827Z,244
2016-12-01T10:08:38.503Z,248
2016-12-01T10:09:38.850Z,248
2016-12-01T10:10:38.538Z,236
2016-12-01T10:11:38.557Z,228
2016-12-01T10:12:38.892Z,236
2016-12-01T10:13:38.905Z,244
2016-12-01T10:14:38.961Z,244
2016-12-01T10:15:38.628Z,240
2016-12-01T10:16:38.962Z,240
2016-12-01T10:17:38.655Z,248
2016-12-01T10:18:38.674Z,252
2016-12-01T10:19:39.007Z,256
2016-12-01T10:20:39.023Z,252
2016-12-01T10:21:38.723Z,244
2016-12-01T10:22:38.743Z,228
2016-12-01T10:23:39.071Z,224
2016-12-01T10:24:39.092Z,224
2016-12-01T10:25:38.791Z,216
2016-12-01T10:26:38.821Z,220
2016-12-01T10:27:38.510Z,236
2016-12-01T10:28:38.529Z,252
2016-12-01T10:29:39.207Z,256
2016-12-01T10:30:38.885Z,268
2016-12-01T10:31:39.211Z,288
2016-12-01T10:32:38.928Z,328
2016-12-01T10:33:39.262Z,352
2016-12-01T10:34:39.481Z,364
2016-12-01T10:35:39.061Z,368
2016-12-01T10:36:39.115Z,376
2016-12-01T10:37:39.111Z,392
2016-12-01T10:38:39.628Z,392
2016-12-01T10:39:39.028Z,388
2016-12-01T10:40:39.364Z,380
2016-12-01T10:41:39.699Z,368
2016-12-01T10:42:39.396Z,376
2016-12-01T10:43:39.412Z,384
2016-12-01T10:44:39.430Z,384
2016-12-01T10:45:39.448Z,380
2016-12-01T10:46:39.465Z,356
2016-12-01T10:47:39.169Z,356
2016-12-01T10:48:39.508Z,352
2016-12-01T10:49:38.882Z,360
2016-12-01T10:50:39.866Z,368
2016-12-01T10:51:39.235Z,368
2016-12-01T10:52:39.883Z,368
2016-12-01T10:53:39.589Z,372
2016-12-01T10:54:39.293Z,368
2016-12-01T10:55:39.624Z,368
2016-12-01T10:56:39.322Z,364
2016-12-01T10:57:39.341Z,344
2016-12-01T10:58:39.687Z,324
2016-12-01T10:59:39.715Z,308
2016-12-01T11:00:39.721Z,300
2016-12-01T11:01:39.725Z,292
2016-12-01T11:02:39.113Z,288
2016-12-01T11:03:39.768Z,292
2016-12-01T11:04:39.776Z,296
2016-12-01T11:05:39.500Z,300
2016-12-01T11:06:39.506Z,304
2016-12-01T11:07:39.206Z,300
2016-12-01T11:08:39.848Z,296
2016-12-01T11:09:39.550Z,292
2016-12-01T11:10:39.884Z,288
2016-12-01T11:11:40.213Z,296
2016-12-01T11:12:39.285Z,308
2016-12-01T11:13:39.631Z,320
2016-12-01T11:14:39.643Z,324
2016-12-01T11:15:39.973Z,328
2016-12-01T11:16:39.360Z,320
2016-12-01T11:17:40.002Z,312
2016-12-01T11:18:40.024Z,336
2016-12-01T11:19:39.729Z,360
2016-12-01T11:20:40.064Z,372
2016-12-01T11:21:39.756Z,392
2016-12-01T11:22:39.778Z,416
2016-12-01T11:23:39.793Z,424
2016-12-01T11:24:40.134Z,436
2016-12-01T11:25:39.828Z,424
2016-12-01T11:26:39.533Z,412
2016-12-01T11:27:39.558Z,412
2016-12-01T11:28:39.567Z,392
2016-12-01T11:29:39.897Z,400
2016-12-01T11:30:39.921Z,420
2016-12-01T11:31:39.938Z,392
2016-12-01T11:32:39.636Z,352
2016-12-01T11:33:40.603Z,344
2016-12-01T11:34:40.305Z,344
2016-12-01T11:35:40.006Z,364
2016-12-01T11:36:40.028Z,388
2016-12-01T11:37:40.042Z,392
2016-12-01T11:38:40.378Z,376
2016-12-01T11:39:40.079Z,360
2016-12-01T11:40:40.730Z,348
2016-12-01T11:41:40.132Z,340
2016-12-01T11:42:40.768Z,332
2016-12-01T11:43:40.790Z,320
2016-12-01T11:44:40.165Z,312
2016-12-01T11:45:40.816Z,292
2016-12-01T11:46:40.202Z,276
2016-12-01T11:47:40.216Z,268
2016-12-01T11:48:40.237Z,272
2016-12-01T11:49:40.571Z,280
2016-12-01T11:50:40.925Z,272
2016-12-01T11:51:40.296Z,272
2016-12-01T11:52:40.632Z,288
2016-12-01T11:53:40.957Z,316
2016-12-01T11:54:40.029Z,328
2016-12-01T11:55:40.050Z,324
2016-12-01T11:56:40.391Z,292
2016-12-01T11:57:40.398Z,276
2016-12-01T11:58:40.773Z,280
2016-12-01T11:59:40.745Z,292
2016-12-01T12:00:40.469Z,296
2016-12-01T12:01:40.482Z,296
2016-12-01T12:02:40.808Z,292
2016-12-01T12:03:40.818Z,284
2016-12-01T12:04:41.157Z,288
2016-12-01T12:05:41.180Z,288
2016-12-01T12:06:40.873Z,300
2016-12-01T12:07:41.209Z,304
2016-12-01T12:08:40.592Z,304
2016-12-01T12:09:40.929Z,296
2016-12-01T12:10:40.970Z,304
2016-12-01T12:11:41.279Z,320
2016-12-01T12:12:40.984Z,344
2016-12-01T12:13:41.039Z,388
2016-12-01T12:14:40.717Z,420
2016-12-01T12:15:40.730Z,452
2016-12-01T12:16:40.736Z,468
2016-12-01T12:17:40.448Z,464
2016-12-01T12:18:41.091Z,444
2016-12-01T12:19:41.417Z,436
2016-12-01T12:20:40.831Z,436
2016-12-01T12:21:40.839Z,452
2016-12-01T12:22:41.164Z,472
2016-12-01T12:23:41.184Z,484
2016-12-01T12:24:40.879Z,476
2016-12-01T12:25:40.899Z,464
2016-12-01T12:26:40.918Z,444
2016-12-01T12:27:40.616Z,428
2016-12-01T12:28:40.976Z,440
2016-12-01T12:29:41.287Z,580
2016-12-01T12:30:40.988Z,544
2016-12-01T12:31:41.324Z,560
2016-12-01T12:32:41.026Z,520
2016-12-01T12:33:41.044Z,468
2016-12-01T12:34:41.058Z,464
2016-12-01T12:35:41.080Z,460
2016-12-01T12:36:41.414Z,424
2016-12-01T12:37:41.429Z,380
2016-12-01T12:38:41.787Z,360
2016-12-01T12:39:41.468Z,376
2016-12-01T12:40:41.488Z,404
2016-12-01T12:41:41.189Z,448
2016-12-01T12:42:41.208Z,472
2016-12-01T12:43:40.910Z,472
2016-12-01T12:44:41.561Z,448
2016-12-01T12:45:41.575Z,396
2016-12-01T12:46:41.592Z,364
2016-12-01T12:47:41.619Z,360
2016-12-01T12:48:40.998Z,356
2016-12-01T12:49:56.222Z,344
2016-12-01T12:50:41.671Z,336
2016-12-01T12:51:42.000Z,336
2016-12-01T12:52:41.389Z,324
2016-12-01T12:53:41.406Z,320
2016-12-01T12:54:41.114Z,320
2016-12-01T12:55:41.132Z,320
2016-12-01T12:56:41.777Z,312
2016-12-01T12:57:42.123Z,300
2016-12-01T12:58:41.497Z,312
2016-12-01T12:59:41.831Z,336
2016-12-01T13:00:41.848Z,360
2016-12-01T13:01:41.551Z,364
2016-12-01T13:02:41.252Z,372
2016-12-01T13:03:41.902Z,380
2016-12-01T13:04:41.608Z,384
2016-12-01T13:05:41.311Z,380
2016-12-01T13:06:41.960Z,380
2016-12-01T13:07:41.695Z,388
2016-12-01T13:08:41.678Z,404
2016-12-01T13:09:42.018Z,396
2016-12-01T13:10:42.026Z,372
2016-12-01T13:11:42.368Z,300
2016-12-01T13:12:41.759Z,240
2016-12-01T13:13:41.456Z,192
2016-12-01T13:14:41.789Z,164
2016-12-01T13:15:42.447Z,148
2016-12-01T13:16:41.845Z,140
2016-12-01T13:17:41.527Z,140
2016-12-01T13:18:42.177Z,140
2016-12-01T13:19:42.214Z,152
2016-12-01T13:20:42.236Z,156
2016-12-01T13:21:41.930Z,156
2016-12-01T13:22:41.624Z,160
2016-12-01T13:23:41.962Z,160
2016-12-01T13:24:42.299Z,156
2016-12-01T13:25:41.998Z,148
2016-12-01T13:26:42.010Z,136
2016-12-01T13:27:42.030Z,132
2016-12-01T13:28:42.361Z,124
2016-12-01T13:29:42.066Z,124
2016-12-01T13:30:42.080Z,136
2016-12-01T13:31:42.449Z,156
2016-12-01T13:32:42.133Z,176
2016-12-01T13:33:42.771Z,192
2016-12-01T13:34:42.476Z,200
2016-12-01T13:35:56.760Z,208
2016-12-01T13:36:42.195Z,208
2016-12-01T13:37:41.903Z,200
2016-12-01T13:38:42.230Z,192
2016-12-01T13:39:42.256Z,196
2016-12-01T13:40:42.899Z,196
2016-12-01T13:41:42.289Z,200
2016-12-01T13:42:41.996Z,196
2016-12-01T13:43:42.006Z,192
2016-12-01T13:44:42.025Z,196
2016-12-01T13:45:42.675Z,220
2016-12-01T13:46:43.005Z,256
2016-12-01T13:47:42.081Z,276
2016-12-01T13:48:42.732Z,308
2016-12-01T13:49:42.427Z,324
2016-12-01T13:50:43.102Z,316
2016-12-01T13:51:43.127Z,296
2016-12-01T13:52:42.830Z,268
2016-12-01T13:53:42.507Z,240
2016-12-01T13:54:43.153Z,216
2016-12-01T13:55:43.171Z,204
2016-12-01T13:56:42.244Z,204
2016-12-01T13:57:42.913Z,212
2016-12-01T13:58:42.910Z,220
2016-12-01T13:59:42.614Z,220
2016-12-01T14:00:42.322Z,216
2016-12-01T14:01:43.282Z,220
2016-12-01T14:02:42.663Z,224
2016-12-01T14:03:43.002Z,224
2016-12-01T14:04:42.701Z,220
2016-12-01T14:05:43.040Z,216
2016-12-01T14:06:43.053Z,216
2016-12-01T14:07:43.389Z,212
2016-12-01T14:08:43.093Z,216
2016-12-01T14:09:43.116Z,216
2016-12-01T14:10:43.136Z,208
2016-12-01T14:11:42.827Z,200
2016-12-01T14:12:42.844Z,204
2016-12-01T14:13:42.861Z,200
2016-12-01T14:14:43.207Z,196
2016-12-01T14:15:42.605Z,196
2016-12-01T14:16:43.228Z,192
2016-12-01T14:17:42.934Z,188
2016-12-01T14:18:43.283Z,184